createdAt,value
2018-12-14T00:00:33.114Z,62.17
2018-12-14T00:03:03.585Z,65.73
2018-12-14T00:05:34.163Z,53.57
2018-12-14T00:08:04.654Z,63.13
2018-12-14T00:10:35.036Z,55.77
2018-12-14T00:13:05.343Z,67.83
2018-12-14T00:15:35.715Z,61.27
2018-12-14T00:18:05.945Z,58.07
2018-12-14T00:20:36.352Z,58.40
2018-12-14T00:23:06.683Z,53.63
2018-12-14T00:25:36.999Z,55.67
2018-12-14T00:28:07.295Z,53.43
2018-12-14T00:30:37.591Z,47.40
2018-12-14T00:33:07.907Z,50.10
2018-12-14T00:35:38.424Z,45.70
2018-12-14T00:38:08.682Z,51.90
2018-12-14T00:40:39.003Z,48.83
2018-12-14T00:43:09.307Z,45.43
2018-12-14T00:45:39.559Z,46.37
2018-12-14T00:48:09.823Z,50.63
2018-12-14T00:50:40.124Z,47.50
2018-12-14T00:53:10.436Z,42.00
2018-12-14T00:55:40.832Z,46.60
2018-12-14T00:58:11.334Z,48.80
2018-12-14T01:00:41.595Z,40.30
2018-12-14T01:03:11.918Z,44.37
2018-12-14T01:05:42.175Z,50.03
2018-12-14T01:08:12.527Z,42.53
2018-12-14T01:10:42.790Z,39.73
2018-12-14T01:13:13.160Z,43.03
2018-12-14T01:15:43.439Z,51.63
2018-12-14T01:18:13.775Z,43.03
2018-12-14T01:20:44.131Z,42.17
2018-12-14T01:23:13.964Z,41.73
2018-12-14T01:25:44.335Z,41.67
2018-12-14T01:28:14.607Z,45.80
2018-12-14T01:30:44.870Z,42.23
2018-12-14T01:33:15.171Z,43.90
2018-12-14T01:35:45.573Z,49.57
2018-12-14T01:38:15.847Z,47.27
2018-12-14T01:40:46.193Z,44.87
2018-12-14T01:43:16.468Z,48.63
2018-12-14T01:45:46.820Z,46.80
2018-12-14T01:48:17.115Z,42.50
2018-12-14T01:50:47.825Z,46.50
2018-12-14T01:53:18.141Z,45.90
2018-12-14T01:55:48.478Z,48.47
2018-12-14T01:58:19.051Z,44.27
2018-12-14T02:00:49.385Z,50.73
2018-12-14T02:03:19.615Z,44.30
2018-12-14T02:05:50.086Z,43.83
2018-12-14T02:08:20.328Z,45.63
2018-12-14T02:10:50.728Z,51.73
2018-12-14T02:13:21.053Z,51.00
2018-12-14T02:15:51.322Z,55.53
2018-12-14T02:18:21.662Z,53.37
2018-12-14T02:21:30.834Z,41.73
2018-12-14T02:24:01.340Z,45.10
2018-12-14T02:26:31.658Z,44.27
2018-12-14T02:29:01.399Z,43.90
2018-12-14T02:31:31.660Z,43.17
2018-12-14T02:34:01.900Z,55.43
2018-12-14T02:39:30.649Z,51.60
2018-12-14T02:42:00.867Z,51.13
2018-12-14T02:44:31.295Z,53.13
2018-12-14T02:47:01.548Z,51.87
2018-12-14T02:49:31.915Z,51.73
2018-12-14T02:52:02.127Z,47.70
2018-12-14T02:54:32.431Z,51.20
2018-12-14T02:57:02.759Z,51.30
2018-12-14T02:59:33.120Z,47.47
2018-12-14T03:02:03.640Z,44.07
2018-12-14T03:04:33.890Z,44.30
2018-12-14T03:07:04.136Z,43.20
2018-12-14T03:09:34.379Z,43.83
2018-12-14T03:12:04.674Z,54.97
2018-12-14T03:14:35.095Z,42.30
2018-12-14T03:17:05.600Z,47.27
2018-12-14T03:19:35.819Z,47.10
2018-12-14T03:22:06.100Z,45.30
2018-12-14T03:24:36.472Z,51.40
2018-12-14T03:27:06.804Z,53.33
2018-12-14T03:29:37.108Z,56.90
2018-12-14T03:32:07.419Z,49.03
2018-12-14T03:34:37.710Z,55.17
2018-12-14T03:37:08.044Z,49.37
2018-12-14T03:39:38.376Z,50.37
2018-12-14T03:42:08.808Z,52.73
2018-12-14T03:44:39.483Z,52.77
2018-12-14T03:47:09.760Z,51.63
2018-12-14T03:49:40.200Z,51.50
2018-12-14T03:52:10.475Z,46.57
2018-12-14T03:54:40.820Z,51.33
2018-12-14T03:57:11.018Z,43.87
2018-12-14T03:59:41.495Z,50.37
2018-12-14T04:02:11.816Z,55.87
2018-12-14T04:04:42.178Z,48.83
2018-12-14T04:07:12.514Z,50.67
2018-12-14T04:09:43.168Z,55.50
2018-12-14T04:12:13.723Z,53.77
2018-12-14T04:14:44.030Z,53.03
2018-12-14T04:17:14.355Z,51.20
2018-12-14T04:19:44.744Z,51.40
2018-12-14T04:22:14.915Z,61.20
2018-12-14T04:27:39.351Z,53.73
2018-12-14T04:30:09.845Z,59.50
2018-12-14T04:32:40.228Z,53.67
2018-12-14T04:35:10.705Z,53.27
2018-12-14T04:44:18.101Z,52.87
2018-12-14T04:46:48.407Z,48.53
2018-12-14T04:49:18.828Z,53.90
2018-12-14T04:51:49.179Z,49.47
2018-12-14T04:54:20.027Z,59.20
2018-12-14T04:56:50.377Z,53.73
2018-12-14T04:59:21.044Z,59.67
2018-12-14T05:01:51.653Z,51.83
2018-12-14T05:04:22.103Z,54.40
2018-12-14T05:06:52.453Z,57.97
2018-12-14T05:09:22.947Z,57.37
2018-12-14T05:11:53.345Z,49.67
2018-12-14T05:14:23.706Z,52.97
2018-12-14T05:16:54.097Z,54.47
2018-12-14T05:19:24.486Z,52.53
2018-12-14T05:21:54.998Z,51.80
2018-12-14T05:24:25.414Z,43.07
2018-12-14T05:26:55.765Z,47.43
2018-12-14T05:29:26.299Z,45.13
2018-12-14T05:31:56.661Z,43.07
2018-12-14T05:34:27.013Z,44.90
2018-12-14T05:36:57.569Z,48.50
2018-12-14T05:39:28.061Z,47.60
2018-12-14T05:41:58.463Z,50.87
2018-12-14T05:44:28.308Z,46.73
2018-12-14T05:46:58.696Z,56.33
2018-12-14T05:49:29.194Z,52.03
2018-12-14T05:51:59.490Z,60.67
2018-12-14T05:54:29.790Z,49.97
2018-12-14T05:57:00.093Z,53.20
2018-12-14T05:59:30.578Z,52.53
2018-12-14T06:02:00.946Z,51.33
2018-12-14T06:04:31.399Z,49.17
2018-12-14T06:07:01.781Z,50.60
2018-12-14T06:09:32.182Z,53.97
2018-12-14T06:12:02.632Z,51.10
2018-12-14T06:14:33.097Z,45.47
2018-12-14T06:17:03.501Z,64.33
2018-12-14T06:19:33.868Z,50.10
2018-12-14T06:22:04.138Z,72.40
2018-12-14T06:24:34.580Z,87.70
2018-12-14T06:27:05.105Z,66.50
2018-12-14T06:29:35.676Z,64.53
2018-12-14T06:32:05.913Z,56.00
2018-12-14T06:34:36.388Z,50.63
2018-12-14T06:37:07.109Z,60.70
2018-12-14T06:39:37.445Z,58.63
2018-12-14T06:42:08.012Z,51.83
2018-12-14T06:44:38.578Z,58.70
2018-12-14T06:47:08.876Z,60.33
2018-12-14T06:49:39.357Z,52.83
2018-12-14T06:52:09.689Z,55.57
2018-12-14T06:54:40.133Z,65.63
2018-12-14T06:57:10.372Z,51.93
2018-12-14T06:59:40.887Z,58.80
2018-12-14T07:02:11.320Z,76.23
2018-12-14T07:04:41.734Z,48.87
2018-12-14T07:07:11.941Z,53.83
2018-12-14T07:09:42.794Z,50.87
2018-12-14T07:12:12.988Z,53.33
2018-12-14T07:14:43.453Z,50.13
2018-12-14T07:17:13.796Z,47.27
2018-12-14T07:19:44.513Z,50.87
2018-12-14T07:22:14.814Z,49.57
2018-12-14T07:24:45.133Z,58.30
2018-12-14T07:27:15.706Z,55.93
2018-12-14T07:29:45.993Z,56.47
2018-12-14T07:32:16.306Z,53.67
2018-12-14T07:34:46.792Z,58.77
2018-12-14T07:37:17.132Z,57.10
2018-12-14T07:39:47.511Z,58.83
2018-12-14T07:42:17.898Z,49.33
2018-12-14T07:44:48.431Z,44.80
2018-12-14T07:47:18.792Z,48.07
2018-12-14T07:49:49.213Z,43.07
2018-12-14T07:52:19.381Z,42.63
2018-12-14T07:54:49.910Z,43.17
2018-12-14T07:57:20.120Z,53.07
2018-12-14T07:59:50.476Z,37.47
2018-12-14T08:02:20.609Z,40.77
2018-12-14T08:04:50.348Z,47.17
2018-12-14T08:07:20.736Z,46.97
2018-12-14T08:09:51.045Z,41.67
2018-12-14T08:12:21.486Z,58.90
2018-12-14T08:14:51.874Z,43.93
2018-12-14T08:17:22.132Z,47.13
2018-12-14T08:19:52.184Z,44.63
2018-12-14T08:22:22.507Z,51.17
2018-12-14T08:24:52.832Z,44.40
2018-12-14T08:27:23.217Z,40.40
2018-12-14T08:29:53.534Z,41.60
2018-12-14T08:32:25.253Z,50.07
2018-12-14T08:34:55.542Z,33.53
2018-12-14T08:37:25.857Z,43.07
2018-12-14T08:39:56.154Z,30.97
2018-12-14T08:42:26.436Z,46.13
2018-12-14T08:44:56.848Z,50.57
2018-12-14T08:47:27.093Z,43.97
2018-12-14T08:49:57.346Z,32.47
2018-12-14T08:52:27.692Z,41.10
2018-12-14T08:54:58.000Z,44.70
2018-12-14T08:57:28.346Z,44.53
2018-12-14T08:59:58.770Z,36.43
2018-12-14T09:02:29.058Z,38.80
2018-12-14T09:04:59.451Z,39.13
2018-12-14T09:07:29.641Z,42.73
2018-12-14T09:09:59.412Z,31.77
2018-12-14T09:12:29.648Z,36.80
2018-12-14T09:14:59.975Z,36.27
2018-12-14T09:17:30.193Z,31.20
2018-12-14T09:20:00.792Z,35.27
2018-12-14T09:22:31.012Z,27.33
2018-12-14T09:25:01.222Z,30.50
2018-12-14T09:27:31.385Z,32.93
2018-12-14T09:30:01.801Z,34.57
2018-12-14T09:32:32.137Z,32.67
2018-12-14T09:35:02.646Z,27.83
2018-12-14T09:37:33.022Z,25.80
2018-12-14T09:40:03.401Z,30.50
2018-12-14T09:42:33.697Z,31.27
2018-12-14T09:45:04.337Z,29.47
2018-12-14T09:47:34.592Z,32.33
2018-12-14T09:50:05.161Z,34.50
2018-12-14T09:52:35.656Z,25.10
2018-12-14T09:55:06.077Z,29.77
2018-12-14T09:57:36.358Z,32.40
2018-12-14T10:00:06.674Z,36.17
2018-12-14T10:02:36.830Z,34.67
2018-12-14T10:05:08.634Z,27.40
2018-12-14T10:07:38.224Z,24.63
2018-12-14T10:10:08.955Z,36.73
2018-12-14T10:12:39.033Z,27.17
2018-12-14T10:15:09.677Z,27.23
2018-12-14T10:17:40.021Z,37.97
2018-12-14T10:20:11.056Z,38.20
2018-12-14T10:22:41.635Z,41.60
2018-12-14T10:25:11.869Z,40.77
2018-12-14T10:27:42.393Z,45.07
2018-12-14T10:30:12.799Z,42.87
2018-12-14T10:32:43.014Z,45.50
2018-12-14T10:35:13.662Z,43.63
2018-12-14T10:37:43.936Z,37.30
2018-12-14T10:40:14.370Z,34.10
2018-12-14T10:42:44.682Z,40.17
2018-12-14T10:45:15.065Z,42.13
2018-12-14T10:47:45.291Z,48.53
2018-12-14T10:50:15.475Z,38.83
2018-12-14T10:52:45.019Z,42.53
2018-12-14T10:55:15.388Z,33.50
2018-12-14T10:57:45.816Z,41.33
2018-12-14T11:00:22.683Z,31.87
2018-12-14T11:02:52.867Z,36.47
2018-12-14T11:05:23.220Z,38.43
2018-12-14T11:07:53.421Z,29.23
2018-12-14T11:10:23.728Z,38.43
2018-12-14T11:12:53.901Z,36.73
2018-12-14T11:15:24.240Z,37.40
2018-12-14T11:17:54.583Z,35.60
2018-12-14T11:20:24.873Z,33.87
2018-12-14T11:22:55.190Z,43.77
2018-12-14T11:25:25.562Z,30.50
2018-12-14T11:27:55.844Z,33.83
2018-12-14T11:30:26.072Z,28.47
2018-12-14T11:32:56.296Z,28.73
2018-12-14T11:35:26.589Z,27.67
2018-12-14T11:37:56.903Z,40.97
2018-12-14T11:40:27.246Z,78.07
2018-12-14T11:42:57.700Z,29.77
2018-12-14T11:45:28.057Z,40.40
2018-12-14T11:47:58.471Z,32.77
2018-12-14T11:50:28.908Z,43.37
2018-12-14T11:52:59.247Z,40.57
2018-12-14T11:55:29.376Z,41.57
2018-12-14T11:57:59.661Z,39.03
2018-12-14T12:00:29.911Z,33.73
2018-12-14T12:03:00.036Z,28.13
2018-12-14T12:05:30.494Z,27.27
2018-12-14T12:08:01.117Z,27.80
2018-12-14T12:10:31.573Z,77.07
2018-12-14T12:13:01.854Z,67.67
2018-12-14T12:15:32.142Z,82.67
2018-12-14T12:18:02.391Z,30.97
2018-12-14T12:20:32.857Z,44.93
2018-12-14T12:23:03.241Z,96.27
2018-12-14T12:25:33.538Z,40.23
2018-12-14T12:28:03.784Z,44.17
2018-12-14T12:30:34.024Z,37.77
2018-12-14T12:33:04.258Z,42.43
2018-12-14T12:35:34.633Z,70.30
2018-12-14T12:38:04.803Z,77.87
2018-12-14T12:40:35.256Z,35.53
2018-12-14T12:43:05.564Z,34.40
2018-12-14T12:45:35.857Z,40.37
2018-12-14T12:48:05.928Z,50.73
2018-12-14T12:50:36.213Z,46.40
2018-12-14T12:53:06.552Z,88.03
2018-12-14T12:55:36.897Z,108.63
2018-12-14T12:58:07.553Z,62.00
2018-12-14T13:00:37.910Z,71.47
2018-12-14T13:03:08.153Z,49.40
2018-12-14T13:05:38.538Z,48.80
2018-12-14T13:08:08.728Z,43.40
2018-12-14T13:10:39.065Z,40.57
2018-12-14T13:13:09.661Z,58.83
2018-12-14T13:15:40.014Z,33.93
2018-12-14T13:18:10.195Z,55.50
2018-12-14T13:20:40.583Z,48.93
2018-12-14T13:23:10.748Z,88.43
2018-12-14T13:25:41.010Z,67.17
2018-12-14T13:28:11.349Z,63.47
2018-12-14T13:30:41.617Z,67.03
2018-12-14T13:33:12.061Z,45.23
2018-12-14T13:35:42.513Z,53.83
2018-12-14T13:38:12.804Z,45.67
2018-12-14T13:40:43.053Z,48.10
2018-12-14T13:43:13.445Z,48.47
2018-12-14T13:45:43.730Z,36.73
2018-12-14T13:48:14.057Z,44.37
2018-12-14T13:50:44.332Z,43.93
2018-12-14T13:53:14.636Z,50.50
2018-12-14T13:55:45.104Z,41.33
2018-12-14T13:58:15.378Z,49.13
2018-12-14T14:00:45.802Z,42.63
2018-12-14T14:03:16.137Z,43.30
2018-12-14T14:05:46.578Z,40.50
2018-12-14T14:08:16.885Z,44.90
2018-12-14T14:10:47.267Z,42.53
2018-12-14T14:13:17.494Z,39.50
2018-12-14T14:15:50.798Z,45.70
2018-12-14T14:18:18.289Z,45.30
2018-12-14T14:20:48.588Z,39.80
2018-12-14T14:23:18.925Z,47.77
2018-12-14T14:25:49.341Z,65.17
2018-12-14T14:28:19.685Z,80.53
2018-12-14T14:30:50.049Z,82.70
2018-12-14T14:33:20.321Z,60.50
2018-12-14T14:35:50.706Z,53.27
2018-12-14T14:38:20.998Z,43.30
2018-12-14T14:40:51.342Z,41.87
2018-12-14T14:43:21.593Z,41.47
2018-12-14T14:45:51.825Z,27.67
2018-12-14T14:48:22.069Z,33.30
2018-12-14T14:50:52.470Z,35.20
2018-12-14T14:53:22.974Z,30.83
2018-12-14T14:55:53.218Z,39.87
2018-12-14T14:58:23.507Z,44.50
2018-12-14T15:00:53.776Z,49.63
2018-12-14T15:03:24.202Z,38.23
2018-12-14T15:05:54.708Z,42.67
2018-12-14T15:08:24.973Z,45.43
2018-12-14T15:10:55.326Z,36.13
2018-12-14T15:13:28.583Z,40.37
2018-12-14T15:15:59.090Z,42.87
2018-12-14T15:18:29.292Z,38.37
2018-12-14T15:20:59.001Z,38.20
2018-12-14T15:23:29.120Z,29.67
2018-12-14T15:25:59.389Z,39.73
2018-12-14T15:28:29.789Z,33.13
2018-12-14T15:30:59.977Z,17.63
2018-12-14T15:33:30.234Z,30.50
2018-12-14T15:36:00.490Z,45.80
2018-12-14T15:38:30.817Z,37.40
2018-12-14T15:41:01.130Z,45.37
2018-12-14T15:43:31.540Z,31.30
2018-12-14T15:46:01.924Z,40.93
2018-12-14T15:48:32.242Z,73.03
2018-12-14T15:51:02.528Z,75.47
2018-12-14T15:53:32.940Z,58.80
2018-12-14T15:56:03.236Z,60.53
2018-12-14T15:58:33.678Z,65.80
2018-12-14T16:01:04.062Z,64.63
2018-12-14T16:03:33.894Z,79.87
2018-12-14T16:06:04.297Z,50.67
2018-12-14T16:08:34.606Z,36.53
2018-12-14T16:11:04.891Z,102.03
2018-12-14T16:13:35.315Z,60.03
2018-12-14T16:16:05.656Z,70.03
2018-12-14T16:18:36.022Z,54.80
2018-12-14T16:21:06.319Z,44.80
2018-12-14T16:23:36.742Z,44.30
2018-12-14T16:26:07.122Z,17.23
2018-12-14T16:28:37.434Z,47.70
2018-12-14T16:31:07.702Z,27.37
2018-12-14T16:33:38.430Z,48.50
2018-12-14T16:36:08.742Z,26.90
2018-12-14T16:38:39.076Z,38.60
2018-12-14T16:41:09.341Z,48.97
2018-12-14T16:43:39.182Z,31.27
2018-12-14T16:46:09.517Z,40.30
2018-12-14T16:48:39.791Z,33.87
2018-12-14T16:51:10.154Z,37.53
2018-12-14T16:53:45.309Z,29.67
2018-12-14T16:56:15.621Z,32.17
2018-12-14T16:58:46.497Z,62.00
2018-12-14T17:01:17.199Z,35.90
2018-12-14T17:03:47.569Z,26.77
2018-12-14T17:06:17.982Z,23.73
2018-12-14T17:08:48.393Z,21.83
2018-12-14T17:11:18.689Z,18.37
2018-12-14T17:13:48.890Z,43.47
2018-12-14T17:16:19.165Z,34.83
2018-12-14T17:18:49.482Z,39.97
2018-12-14T17:21:19.882Z,39.37
2018-12-14T17:23:50.126Z,25.37
2018-12-14T17:26:20.453Z,19.67
2018-12-14T17:28:51.069Z,22.40
2018-12-14T17:31:21.295Z,21.80
2018-12-14T17:33:51.601Z,14.50
2018-12-14T17:36:21.829Z,18.77
2018-12-14T17:38:52.039Z,18.57
2018-12-14T17:41:22.267Z,23.80
2018-12-14T17:43:52.486Z,24.57
2018-12-14T17:46:22.654Z,45.93
2018-12-14T17:48:53.034Z,30.27
2018-12-14T17:51:23.262Z,52.38
2018-12-14T17:53:53.565Z,42.70
2018-12-14T17:56:23.881Z,54.57
2018-12-14T17:58:54.149Z,60.60
2018-12-14T18:01:24.460Z,50.03
2018-12-14T18:03:54.829Z,43.70
2018-12-14T18:06:25.110Z,32.33
2018-12-14T18:08:55.380Z,38.17
2018-12-14T18:11:25.688Z,36.00
2018-12-14T18:13:56.071Z,26.07
2018-12-14T18:16:26.432Z,36.90
2018-12-14T18:18:56.720Z,34.73
2018-12-14T18:21:27.018Z,29.27
2018-12-14T18:23:57.317Z,27.03
2018-12-14T18:26:27.559Z,20.73
2018-12-14T18:28:57.829Z,26.60
2018-12-14T18:31:28.096Z,23.23
2018-12-14T18:33:58.461Z,29.00
2018-12-14T18:36:28.740Z,41.33
2018-12-14T18:38:59.103Z,24.63
2018-12-14T18:41:29.341Z,25.83
2018-12-14T18:43:59.647Z,27.87
2018-12-14T18:46:29.959Z,38.07
2018-12-14T18:49:00.297Z,30.07
2018-12-14T18:51:30.627Z,32.10
2018-12-14T18:54:00.968Z,18.90
2018-12-14T18:56:31.653Z,44.40
2018-12-14T18:59:01.942Z,31.33
2018-12-14T19:01:32.239Z,31.13
2018-12-14T19:04:02.570Z,29.00
2018-12-14T19:06:32.772Z,29.53
2018-12-14T19:09:02.950Z,26.40
2018-12-14T19:11:33.185Z,23.17
2018-12-14T19:14:03.598Z,29.90
2018-12-14T19:16:33.304Z,27.57
2018-12-14T19:19:03.365Z,29.67
2018-12-14T19:21:33.694Z,24.83
2018-12-14T19:24:04.117Z,25.93
2018-12-14T19:26:34.154Z,24.90
2018-12-14T19:29:04.477Z,36.37
2018-12-14T19:31:34.652Z,25.53
2018-12-14T19:34:05.023Z,30.00
2018-12-14T19:36:35.380Z,36.63
2018-12-14T19:39:05.621Z,33.15
2018-12-14T19:41:35.717Z,36.03
2018-12-14T19:44:05.912Z,28.83
2018-12-14T19:46:36.186Z,25.10
2018-12-14T19:49:06.566Z,18.43
2018-12-14T19:51:36.805Z,36.03
2018-12-14T19:54:07.392Z,37.37
2018-12-14T19:56:37.618Z,30.67
2018-12-14T19:59:08.113Z,34.90
2018-12-14T20:01:38.369Z,32.93
2018-12-14T20:04:09.018Z,27.10
2018-12-14T20:06:39.125Z,46.10
2018-12-14T20:09:09.363Z,32.27
2018-12-14T20:11:39.773Z,38.20
2018-12-14T20:14:10.043Z,23.90
2018-12-14T20:16:39.753Z,59.90
2018-12-14T20:19:10.086Z,47.40
2018-12-14T20:21:40.486Z,39.37
2018-12-14T20:24:10.900Z,63.60
2018-12-14T20:26:41.226Z,48.50
2018-12-14T20:29:11.897Z,37.50
2018-12-14T20:31:41.606Z,42.33
2018-12-14T20:34:11.920Z,31.83
2018-12-14T20:36:42.171Z,37.33
2018-12-14T20:39:12.362Z,34.90
2018-12-14T20:41:42.673Z,33.70
2018-12-14T20:44:13.048Z,35.50
2018-12-14T20:46:43.478Z,33.73
2018-12-14T20:49:13.757Z,32.03
2018-12-14T20:51:44.030Z,28.95
2018-12-14T20:54:28.111Z,31.03
2018-12-14T20:56:58.901Z,35.83
2018-12-14T20:59:29.296Z,36.87
2018-12-14T21:01:59.714Z,41.37
2018-12-14T21:04:29.989Z,41.53
2018-12-14T21:07:00.374Z,33.77
2018-12-14T21:09:30.830Z,37.77
2018-12-14T21:12:01.096Z,42.67
2018-12-14T21:14:31.520Z,31.43
2018-12-14T21:17:01.900Z,44.40
2018-12-14T21:19:32.186Z,46.10
2018-12-14T21:22:02.523Z,48.20
2018-12-14T21:24:32.217Z,47.90
2018-12-14T21:27:02.478Z,51.97
2018-12-14T21:29:32.873Z,46.00
2018-12-14T21:32:02.567Z,48.90
2018-12-14T21:34:32.937Z,48.23
2018-12-14T21:37:03.261Z,56.03
2018-12-14T21:39:33.693Z,46.10
2018-12-14T21:42:04.201Z,50.07
2018-12-14T21:44:34.541Z,41.87
2018-12-14T21:47:05.009Z,43.27
2018-12-14T21:49:35.393Z,47.57
2018-12-14T21:52:05.972Z,42.83
2018-12-14T21:54:36.498Z,47.23
2018-12-14T21:57:06.744Z,45.17
2018-12-14T21:59:37.069Z,42.17
2018-12-14T22:02:07.496Z,44.63
2018-12-14T22:04:37.291Z,39.73
2018-12-14T22:07:07.642Z,53.53
2018-12-14T22:09:38.110Z,47.17
2018-12-14T22:12:08.565Z,40.80
2018-12-14T22:14:39.008Z,49.80
2018-12-14T22:17:09.367Z,40.90
2018-12-14T22:19:39.900Z,35.70
2018-12-14T22:22:10.392Z,48.63
2018-12-14T22:24:40.798Z,49.37
2018-12-14T22:27:11.189Z,42.97
2018-12-14T22:29:41.501Z,40.03
2018-12-14T22:32:11.848Z,52.07
2018-12-14T22:34:42.205Z,55.07
2018-12-14T22:37:12.922Z,53.73
2018-12-14T22:39:43.312Z,48.80
2018-12-14T22:42:13.672Z,52.57
2018-12-14T22:44:44.182Z,50.27
2018-12-14T22:47:14.533Z,55.60
2018-12-14T22:49:45.161Z,46.10
2018-12-14T22:52:15.398Z,50.47
2018-12-14T22:54:45.785Z,54.30
2018-12-14T22:57:16.192Z,49.73
2018-12-14T22:59:46.765Z,52.87
2018-12-14T23:02:17.292Z,56.57
2018-12-14T23:04:47.648Z,56.80
2018-12-14T23:07:18.000Z,52.37
2018-12-14T23:09:48.480Z,51.57
2018-12-14T23:12:18.954Z,49.97
2018-12-14T23:14:49.581Z,47.50
2018-12-14T23:17:19.829Z,53.20
2018-12-14T23:19:50.121Z,47.93
2018-12-14T23:22:20.596Z,56.10
2018-12-14T23:24:50.853Z,54.50
2018-12-14T23:27:21.076Z,50.97
2018-12-14T23:29:51.409Z,52.77
2018-12-14T23:32:21.703Z,56.93
2018-12-14T23:34:52.133Z,59.90
2018-12-14T23:37:22.565Z,47.73
2018-12-14T23:39:52.911Z,49.40
2018-12-14T23:42:23.326Z,48.73
2018-12-14T23:44:53.723Z,52.03
2018-12-14T23:47:24.061Z,58.70
2018-12-14T23:49:54.393Z,57.97
2018-12-14T23:52:24.821Z,60.97
2018-12-14T23:54:55.179Z,58.70
2018-12-14T23:57:25.437Z,55.50
2018-12-14T23:59:55.854Z,52.20
